Time;durP1;ratioP1;P1;durP2;ratioP2;P2;SDS_P1;SDS_P2;PMS_P1;PMS_P2;Temp;Humidity;BMP_temperature;BMP_pressure;BME280_temperature;BME280_humidity;BME280_pressure;Samples;Min_cycle;Max_cycle;Signal;HPM_P1;HPM_P2
2022/01/06 00:00:35;;;;;;;14.85;5.47;;;1.20;98.80;;;;;;5042690;28;20578;-66
2022/01/06 00:03:02;;;;;;;15.50;6.90;;;1.20;98.90;;;;;;5041471;28;20037;-67
2022/01/06 00:05:29;;;;;;;21.60;6.03;;;1.20;98.90;;;;;;5036027;28;20056;-66
2022/01/06 00:07:56;;;;;;;15.80;5.85;;;1.20;98.90;;;;;;5041986;28;20478;-65
2022/01/06 00:10:24;;;;;;;15.75;5.68;;;1.20;98.90;;;;;;5043224;28;20080;-65
2022/01/06 00:13:07;;;;;;;15.43;5.82;;;1.20;98.80;;;;;;5042589;28;20043;-66
2022/01/06 00:26:00;;;;;;;18.65;6.63;;;1.00;98.90;;;;;;5046605;28;20041;-65
2022/01/06 00:28:27;;;;;;;23.27;5.07;;;1.00;98.90;;;;;;5048263;28;20037;-65
2022/01/06 00:30:54;;;;;;;19.70;5.57;;;1.60;99.10;;;;;;5049296;28;20095;-66
2022/01/06 00:33:20;;;;;;;17.30;5.80;;;0.90;99.00;;;;;;5049010;28;20044;-65
2022/01/06 00:35:47;;;;;;;18.98;5.72;;;0.80;99.00;;;;;;5049518;28;20099;-65
2022/01/06 00:38:14;;;;;;;17.48;6.85;;;0.80;99.10;;;;;;5048975;28;20037;-65
2022/01/06 00:40:41;;;;;;;17.05;6.03;;;0.80;99.00;;;;;;5046371;28;20080;-65
2022/01/06 00:43:08;;;;;;;14.20;4.95;;;0.70;99.10;;;;;;5046845;28;20099;-66
2022/01/06 00:45:38;;;;;;;16.08;4.68;;;0.80;99.20;;;;;;5047112;28;20493;-66
2022/01/06 00:48:10;;;;;;;14.90;5.13;;;0.80;99.20;;;;;;5047612;28;20071;-66
2022/01/06 00:50:38;;;;;;;28.05;6.72;;;0.70;99.10;;;;;;5047892;28;20080;-65
2022/01/06 00:53:04;;;;;;;17.70;5.60;;;0.70;99.00;;;;;;5046603;28;20095;-66
2022/01/06 00:55:32;;;;;;;19.58;5.40;;;0.70;98.80;;;;;;5047957;28;20086;-65
2022/01/06 00:57:59;;;;;;;16.20;5.75;;;0.60;98.80;;;;;;5046732;28;20045;-65
2022/01/06 01:00:29;;;;;;;15.35;6.05;;;0.60;99.10;;;;;;5047535;28;20076;-65
2022/01/06 01:02:56;;;;;;;13.10;6.65;;;0.60;99.10;;;;;;5046690;28;20045;-66
2022/01/06 01:05:23;;;;;;;13.27;6.53;;;0.60;99.00;;;;;;5042374;28;20064;-66
2022/01/06 01:07:50;;;;;;;15.63;5.43;;;0.90;99.20;;;;;;5047479;28;20099;-66
2022/01/06 01:10:17;;;;;;;13.48;5.18;;;0.50;99.20;;;;;;5048086;28;20074;-66
2022/01/06 01:12:47;;;;;;;19.35;5.13;;;0.50;99.10;;;;;;5050319;28;20447;-65
2022/01/06 01:15:19;;;;;;;13.80;5.97;;;0.50;99.20;;;;;;5049172;28;20053;-65
2022/01/06 01:17:48;;;;;;;16.25;6.50;;;0.60;99.20;;;;;;5047400;28;20138;-66
2022/01/06 01:20:16;;;;;;;17.92;5.43;;;0.50;99.20;;;;;;5048353;28;20471;-65
2022/01/06 01:22:43;;;;;;;18.77;6.20;;;0.50;98.90;;;;;;5048505;28;20045;-66
2022/01/06 01:25:10;;;;;;;14.90;5.18;;;0.40;99.00;;;;;;5047878;28;20049;-67
2022/01/06 01:27:42;;;;;;;16.63;5.43;;;0.40;99.00;;;;;;5048089;28;20095;-65
2022/01/06 01:30:12;;;;;;;12.75;4.90;;;0.40;99.20;;;;;;5047940;28;20083;-64
2022/01/06 01:32:41;;;;;;;18.88;6.70;;;0.30;99.00;;;;;;5046857;28;20076;-65
2022/01/06 01:35:09;;;;;;;17.20;5.30;;;0.30;99.00;;;;;;5048082;28;20135;-66
2022/01/06 01:37:36;;;;;;;18.80;5.57;;;0.30;99.00;;;;;;5048203;28;20087;-65
2022/01/06 01:40:05;;;;;;;20.65;5.25;;;0.30;99.10;;;;;;5046467;28;20041;-66
2022/01/06 01:42:32;;;;;;;16.50;5.30;;;0.30;99.00;;;;;;5030444;28;20146;-65
2022/01/06 01:45:01;;;;;;;12.25;5.43;;;0.40;99.60;;;;;;5047762;28;20448;-64
2022/01/06 01:47:38;;;;;;;17.63;6.28;;;0.30;99.80;;;;;;5048074;28;20132;-65
2022/01/06 01:50:15;;;;;;;21.08;5.57;;;0.30;99.70;;;;;;5047666;28;20037;-66
2022/01/06 01:52:48;;;;;;;13.23;4.80;;;0.30;99.60;;;;;;5048144;28;20057;-65
2022/01/06 01:55:17;;;;;;;13.73;5.30;;;0.40;99.60;;;;;;5046817;28;20547;-65
2022/01/06 01:57:44;;;;;;;15.35;5.68;;;0.40;99.50;;;;;;5051842;28;20049;-65
2022/01/06 02:00:12;;;;;;;13.63;7.30;;;0.40;99.40;;;;;;5051858;28;20041;-64
2022/01/06 02:02:39;;;;;;;20.17;5.22;;;0.40;99.40;;;;;;5047927;28;20107;-66
2022/01/06 02:05:07;;;;;;;17.48;5.10;;;0.40;99.60;;;;;;5047538;28;20485;-65
2022/01/06 02:07:34;;;;;;;27.58;6.55;;;0.40;99.40;;;;;;5047693;28;20067;-65
2022/01/06 02:10:02;;;;;;;12.93;5.00;;;0.40;99.80;;;;;;5047530;28;20087;-66
2022/01/06 02:12:32;;;;;;;18.98;5.88;;;0.40;99.60;;;;;;5047460;28;20475;-65
2022/01/06 02:14:59;;;;;;;16.33;5.70;;;0.40;99.50;;;;;;5046562;28;20076;-65
2022/01/06 02:17:26;;;;;;;18.85;5.75;;;0.40;99.30;;;;;;5042838;28;20049;-66
2022/01/06 02:20:00;;;;;;;16.77;7.22;;;0.40;99.30;;;;;;5044748;28;20083;-65
2022/01/06 02:22:26;;;;;;;18.50;5.30;;;0.40;99.20;;;;;;5044219;28;20045;-66
2022/01/06 02:24:53;;;;;;;15.73;4.78;;;0.40;99.20;;;;;;5047359;28;20569;-65
2022/01/06 02:27:20;;;;;;;17.25;4.50;;;0.40;99.30;;;;;;5042856;28;20084;-65
2022/01/06 02:29:48;;;;;;;12.02;4.82;;;0.30;99.60;;;;;;5047819;28;20045;-65
2022/01/06 02:32:16;;;;;;;14.63;6.10;;;0.40;99.20;;;;;;5047140;28;20102;-66
2022/01/06 02:34:46;;;;;;;9.68;3.70;;;0.30;99.20;;;;;;5046427;28;20447;-65
2022/01/06 02:37:14;;;;;;;11.07;4.80;;;0.30;99.00;;;;;;5046316;28;20072;-65
2022/01/06 02:39:43;;;;;;;15.07;6.22;;;0.20;99.00;;;;;;5047104;28;20053;-66
2022/01/06 02:42:11;;;;;;;19.83;4.13;;;0.20;99.20;;;;;;5047061;28;20325;-65
2022/01/06 02:44:38;;;;;;;19.15;4.90;;;0.60;99.50;;;;;;5047426;28;20088;-66
2022/01/06 02:47:06;;;;;;;17.10;6.50;;;0.10;99.70;;;;;;5038963;28;20053;-65
2022/01/06 02:49:33;;;;;;;17.42;6.18;;;0.10;99.40;;;;;;5047059;28;20068;-65
2022/01/06 02:52:01;;;;;;;18.15;5.22;;;0.10;99.40;;;;;;5046902;28;20049;-65
2022/01/06 02:54:28;;;;;;;17.58;5.22;;;0.00;99.40;;;;;;5047103;28;20049;-66
2022/01/06 02:56:55;;;;;;;21.08;7.28;;;0.10;99.50;;;;;;5045713;28;20055;-66
2022/01/06 02:59:22;;;;;;;23.52;7.00;;;0.10;99.50;;;;;;5047211;28;20043;-65
2022/01/06 03:01:49;;;;;;;14.43;7.85;;;0.00;99.40;;;;;;5045684;28;20093;-65
2022/01/06 03:04:16;;;;;;;15.90;6.15;;;0.00;99.20;;;;;;5045373;28;20095;-65
2022/01/06 03:06:43;;;;;;;15.65;4.93;;;0.00;99.30;;;;;;5047001;28;20091;-65
2022/01/06 03:09:11;;;;;;;12.15;4.13;;;0.00;99.30;;;;;;5046818;28;20068;-65
2022/01/06 03:11:42;;;;;;;11.15;4.53;;;0.00;99.30;;;;;;5047223;28;20110;-66
2022/01/06 03:14:09;;;;;;;13.60;4.55;;;0.00;99.30;;;;;;5045928;28;20049;-65
2022/01/06 03:16:36;;;;;;;14.57;4.70;;;-0.10;99.30;;;;;;5038938;28;20076;-66
2022/01/06 03:19:03;;;;;;;14.05;4.53;;;-0.10;99.00;;;;;;5046671;28;20037;-65
2022/01/06 03:21:30;;;;;;;10.27;4.40;;;-0.20;98.90;;;;;;5046928;28;20423;-65
2022/01/06 03:23:56;;;;;;;18.38;5.15;;;-0.20;99.20;;;;;;5046806;28;20049;-66
2022/01/06 03:26:23;;;;;;;16.60;4.68;;;0.00;99.60;;;;;;5046390;28;20067;-66
2022/01/06 03:28:50;;;;;;;12.95;4.78;;;-0.20;99.80;;;;;;5047029;28;20037;-66
2022/01/06 03:31:17;;;;;;;10.70;4.18;;;-0.20;99.80;;;;;;5046921;28;20094;-65
2022/01/06 03:33:44;;;;;;;20.50;4.93;;;-0.20;99.90;;;;;;5046291;28;20631;-66
2022/01/06 03:36:11;;;;;;;10.45;5.05;;;-0.20;99.80;;;;;;5046284;28;20048;-64
2022/01/06 03:38:37;;;;;;;12.63;3.90;;;-0.10;99.70;;;;;;5045089;28;20049;-65
2022/01/06 03:41:04;;;;;;;13.07;4.07;;;-0.10;99.50;;;;;;5045763;28;20049;-65
2022/01/06 03:43:31;;;;;;;15.20;4.13;;;-0.10;99.50;;;;;;5046204;28;20099;-64
2022/01/06 03:45:58;;;;;;;19.25;3.75;;;-0.10;99.50;;;;;;5044682;28;20049;-65
2022/01/06 03:48:25;;;;;;;16.67;5.22;;;-0.10;99.40;;;;;;5046646;28;20055;-64
2022/01/06 03:50:52;;;;;;;12.38;4.90;;;-0.20;99.40;;;;;;5050669;28;20045;-65
2022/01/06 03:53:18;;;;;;;14.63;4.60;;;-0.20;99.40;;;;;;5050317;28;20049;-63
2022/01/06 03:55:45;;;;;;;18.50;4.03;;;-0.30;99.30;;;;;;5049955;28;20048;-64
2022/01/06 03:58:12;;;;;;;14.15;4.00;;;-0.20;99.50;;;;;;5049807;28;20581;-64
2022/01/06 04:00:39;;;;;;;13.15;3.65;;;-0.40;99.60;;;;;;5049801;28;20068;-65
2022/01/06 04:03:05;;;;;;;16.17;4.28;;;-0.40;99.50;;;;;;5045578;28;20072;-65
2022/01/06 04:05:33;;;;;;;13.70;4.70;;;-0.40;99.80;;;;;;5049446;28;20133;-65
2022/01/06 04:08:00;;;;;;;19.58;5.40;;;-0.40;99.80;;;;;;5049708;28;20095;-64
2022/01/06 04:10:27;;;;;;;15.77;4.68;;;-0.40;99.80;;;;;;5049018;28;20037;-64
2022/01/06 04:12:54;;;;;;;18.58;5.13;;;-0.40;99.40;;;;;;5050199;28;20095;-65
2022/01/06 04:15:23;;;;;;;9.93;4.00;;;-0.50;99.40;;;;;;5049205;28;20098;-64
2022/01/06 04:17:50;;;;;;;16.50;4.25;;;-0.40;99.50;;;;;;5050133;28;20087;-64
2022/01/06 04:20:17;;;;;;;14.18;5.50;;;-0.50;99.50;;;;;;5049681;28;20496;-64
2022/01/06 04:22:44;;;;;;;11.25;4.32;;;-0.50;99.60;;;;;;5048838;28;20068;-64
2022/01/06 04:25:11;;;;;;;13.48;4.28;;;-0.40;99.50;;;;;;5049924;28;20044;-64
2022/01/06 04:27:38;;;;;;;13.93;4.45;;;-0.40;99.40;;;;;;5048500;28;20432;-64
2022/01/06 04:30:06;;;;;;;12.65;3.95;;;-0.50;99.00;;;;;;5049811;28;20041;-65
2022/01/06 04:32:33;;;;;;;20.83;4.97;;;-0.50;99.00;;;;;;5049342;28;20102;-65
2022/01/06 04:35:02;;;;;;;15.05;4.47;;;-0.60;99.10;;;;;;5048451;28;20040;-65
2022/01/06 04:37:29;;;;;;;8.93;4.00;;;-0.50;99.60;;;;;;5049698;28;20452;-64
2022/01/06 04:39:56;;;;;;;15.30;4.60;;;-0.50;99.40;;;;;;5049678;28;20044;-64
2022/01/06 04:42:23;;;;;;;17.77;4.82;;;-0.60;99.20;;;;;;5048279;28;20049;-65
2022/01/06 04:44:49;;;;;;;14.48;5.50;;;-0.50;99.30;;;;;;5052003;28;20191;-65
2022/01/06 04:47:16;;;;;;;11.85;4.22;;;-0.50;99.40;;;;;;5053021;28;20049;-62
2022/01/06 04:49:43;;;;;;;14.80;5.57;;;-0.60;99.30;;;;;;5050204;28;20096;-65
2022/01/06 04:52:10;;;;;;;18.65;4.93;;;-0.60;99.40;;;;;;5049201;28;20114;-64
2022/01/06 04:54:36;;;;;;;9.68;4.38;;;-0.50;99.60;;;;;;5047781;28;20103;-65
2022/01/06 04:57:04;;;;;;;14.25;4.30;;;-0.60;99.50;;;;;;5048979;28;20079;-64
2022/01/06 04:59:31;;;;;;;13.95;6.07;;;-0.60;99.50;;;;;;5031715;28;20114;-66
2022/01/06 05:01:57;;;;;;;13.20;4.60;;;-0.60;99.60;;;;;;5047961;28;20098;-66
2022/01/06 05:04:24;;;;;;;15.88;5.45;;;-0.50;99.60;;;;;;5049147;28;20076;-64
2022/01/06 05:06:52;;;;;;;14.93;4.18;;;-0.60;99.50;;;;;;5048655;28;20122;-65
2022/01/06 05:09:18;;;;;;;12.18;5.28;;;-0.60;99.40;;;;;;5049123;28;20091;-64
2022/01/06 05:11:45;;;;;;;17.88;5.85;;;-0.60;99.60;;;;;;5048701;28;20076;-64
2022/01/06 05:14:12;;;;;;;14.55;4.35;;;-0.60;99.60;;;;;;5048951;28;20110;-64
2022/01/06 05:16:39;;;;;;;14.15;4.68;;;-0.60;99.40;;;;;;5049055;28;20076;-65
2022/01/06 05:19:05;;;;;;;16.90;6.60;;;-0.60;99.40;;;;;;5048706;28;20084;-65
2022/01/06 05:21:33;;;;;;;14.68;4.15;;;-0.60;99.40;;;;;;5048634;28;20171;-65
2022/01/06 05:24:00;;;;;;;9.18;4.90;;;-0.70;99.30;;;;;;5048231;28;20072;-64
2022/01/06 05:26:27;;;;;;;15.73;4.85;;;-0.70;99.50;;;;;;5048854;28;20140;-65
2022/01/06 05:28:54;;;;;;;9.98;4.53;;;-0.70;99.50;;;;;;5048667;28;20076;-66
2022/01/06 05:31:21;;;;;;;18.58;4.97;;;-0.70;99.40;;;;;;5048829;28;20146;-68
2022/01/06 05:33:48;;;;;;;10.85;3.80;;;-0.70;99.40;;;;;;5047420;28;20049;-65
2022/01/06 05:36:15;;;;;;;13.32;4.93;;;-0.70;99.30;;;;;;5048285;28;20041;-64
2022/01/06 05:38:41;;;;;;;14.45;4.70;;;-0.80;99.20;;;;;;5046905;28;20566;-64
2022/01/06 05:41:08;;;;;;;18.17;4.47;;;-0.70;99.60;;;;;;5048432;28;20093;-64
2022/01/06 05:43:35;;;;;;;8.20;4.03;;;-0.80;99.60;;;;;;5048292;28;20091;-65
2022/01/06 05:46:02;;;;;;;13.88;5.25;;;-0.80;99.20;;;;;;5048523;28;20422;-64
2022/01/06 05:48:29;;;;;;;26.60;5.90;;;-0.90;99.10;;;;;;5047556;28;20048;-65
2022/01/06 05:50:56;;;;;;;12.45;4.70;;;-0.90;99.40;;;;;;5047111;28;20141;-65
2022/01/06 05:53:22;;;;;;;15.20;5.22;;;-0.90;99.10;;;;;;5047788;28;20057;-66
2022/01/06 05:55:49;;;;;;;9.15;4.18;;;-1.00;99.10;;;;;;5047968;28;20095;-66
2022/01/06 05:58:16;;;;;;;10.23;4.75;;;-1.00;99.10;;;;;;5047967;28;20049;-66
2022/01/06 06:00:43;;;;;;;16.35;4.95;;;-1.00;99.00;;;;;;5048253;28;20924;-65
2022/01/06 06:03:10;;;;;;;16.92;5.18;;;-1.10;99.00;;;;;;5047855;28;20068;-64
2022/01/06 06:05:40;;;;;;;16.40;7.15;;;-1.10;99.20;;;;;;5048049;28;20095;-65
2022/01/06 06:08:07;;;;;;;14.68;5.35;;;-1.10;99.20;;;;;;5047557;28;20103;-65
2022/01/06 06:10:34;;;;;;;10.13;4.80;;;-1.10;99.30;;;;;;5047631;28;20492;-64
2022/01/06 06:13:01;;;;;;;15.15;5.68;;;-1.20;99.50;;;;;;5047848;28;20104;-65
2022/01/06 06:15:33;;;;;;;16.70;5.82;;;-1.10;99.50;;;;;;5047486;28;20068;-65
2022/01/06 06:18:02;;;;;;;16.65;5.80;;;-1.10;99.60;;;;;;5047682;28;20091;-64
2022/01/06 06:20:28;;;;;;;12.75;5.60;;;-1.10;99.60;;;;;;5047420;28;20049;-64
2022/01/06 06:22:56;;;;;;;11.35;6.15;;;-1.10;99.60;;;;;;5047595;28;20099;-65
2022/01/06 06:25:22;;;;;;;11.45;4.93;;;-1.00;99.60;;;;;;5047435;28;20132;-64
2022/01/06 06:27:49;;;;;;;13.38;4.72;;;-1.00;99.30;;;;;;5047829;28;20080;-65
2022/01/06 06:30:16;;;;;;;20.58;6.25;;;-1.00;99.80;;;;;;5046086;28;20045;-64
2022/01/06 06:32:43;;;;;;;21.42;4.97;;;-1.10;99.40;;;;;;5047609;28;20099;-66
2022/01/06 06:35:10;;;;;;;18.58;5.13;;;-1.00;99.50;;;;;;5047049;28;20455;-66
2022/01/06 06:37:37;;;;;;;14.07;6.25;;;-1.10;98.90;;;;;;5047006;28;20045;-66
2022/01/06 06:40:05;;;;;;;18.50;5.60;;;-1.10;99.00;;;;;;5045512;28;20048;-66
2022/01/06 06:42:32;;;;;;;10.48;5.22;;;-1.20;98.90;;;;;;5045269;28;20470;-65
2022/01/06 06:44:59;;;;;;;20.73;6.43;;;-1.10;99.40;;;;;;5047517;28;20071;-66
2022/01/06 06:47:26;;;;;;;15.68;5.40;;;-1.10;99.40;;;;;;5048511;28;20056;-65
2022/01/06 06:49:55;;;;;;;14.80;6.00;;;-1.10;99.40;;;;;;5048718;28;20072;-65
2022/01/06 06:52:23;;;;;;;13.35;5.80;;;-1.10;99.30;;;;;;5046725;28;20048;-65
2022/01/06 06:54:49;;;;;;;14.27;5.38;;;-1.00;99.20;;;;;;5049803;28;20049;-64
2022/01/06 06:57:16;;;;;;;12.20;5.40;;;-1.00;99.00;;;;;;5049643;28;20048;-67
2022/01/06 06:59:43;;;;;;;14.85;5.65;;;-1.10;98.70;;;;;;5049269;28;20189;-65
2022/01/06 07:02:10;;;;;;;12.43;6.10;;;-1.10;99.20;;;;;;5049797;28;20048;-66
2022/01/06 07:04:37;;;;;;;17.67;6.28;;;-1.20;98.60;;;;;;5049679;28;20052;-65
2022/01/06 07:07:11;;;;;;;13.18;6.00;;;-1.20;99.00;;;;;;5047836;28;20045;-64
2022/01/06 07:09:38;;;;;;;15.05;5.88;;;-1.30;99.20;;;;;;5047577;28;20102;-65
2022/01/06 07:12:05;;;;;;;21.80;7.88;;;-1.30;99.30;;;;;;5045374;28;20057;-65
2022/01/06 07:14:32;;;;;;;16.42;5.90;;;-1.30;99.40;;;;;;5047504;28;20057;-66
2022/01/06 07:17:00;;;;;;;18.80;6.40;;;-1.30;99.50;;;;;;5048106;28;20056;-66
2022/01/06 07:19:26;;;;;;;18.05;6.55;;;-1.20;99.50;;;;;;5044263;28;20094;-66
2022/01/06 07:21:53;;;;;;;19.00;7.47;;;-1.20;99.30;;;;;;5046968;28;20048;-66
2022/01/06 07:24:20;;;;;;;12.38;5.97;;;-1.20;98.90;;;;;;5049015;28;20338;-67
2022/01/06 07:26:47;;;;;;;20.10;6.72;;;-1.20;99.30;;;;;;5052281;28;20053;-66
2022/01/06 07:29:15;;;;;;;15.80;6.85;;;-1.30;99.20;;;;;;5054392;28;20049;-66
2022/01/06 07:31:41;;;;;;;14.98;6.43;;;-1.30;99.20;;;;;;5055931;28;20055;-65
2022/01/06 07:34:08;;;;;;;21.90;8.30;;;-1.40;99.20;;;;;;5054060;28;20373;-68
2022/01/06 07:36:35;;;;;;;16.08;6.97;;;-1.40;99.20;;;;;;5049594;28;20048;-67
2022/01/06 07:39:03;;;;;;;19.60;6.50;;;-1.40;99.40;;;;;;5050914;28;20079;-68
2022/01/06 07:41:29;;;;;;;17.10;6.45;;;-1.40;99.70;;;;;;5048105;28;20060;-69
2022/01/06 07:43:56;;;;;;;20.63;7.68;;;-1.40;99.40;;;;;;5050089;28;20106;-70
2022/01/06 07:46:23;;;;;;;14.52;6.68;;;-1.40;99.70;;;;;;5047883;28;20037;-69
2022/01/06 07:48:56;;;;;;;14.20;6.75;;;-1.40;99.50;;;;;;5051807;28;20468;-69
2022/01/06 07:51:24;;;;;;;22.60;7.90;;;-1.40;99.50;;;;;;5050978;28;20060;-68
2022/01/06 07:53:51;;;;;;;19.42;7.00;;;-1.40;99.80;;;;;;5050467;28;20045;-71
2022/01/06 07:56:18;;;;;;;20.17;7.97;;;-1.30;99.90;;;;;;5050080;28;20053;-68
2022/01/06 07:58:45;;;;;;;21.52;7.82;;;-1.30;99.90;;;;;;5051934;28;20110;-68
2022/01/06 08:01:12;;;;;;;19.85;7.15;;;-1.10;99.90;;;;;;5050768;28;20454;-68
2022/01/06 08:03:39;;;;;;;28.05;8.02;;;-1.20;99.80;;;;;;5049001;28;20355;-69
2022/01/06 08:06:06;;;;;;;24.92;7.20;;;-1.10;99.60;;;;;;5050145;28;20037;-69
2022/01/06 08:08:33;;;;;;;14.20;7.00;;;-1.10;99.30;;;;;;5050649;28;20053;-66
2022/01/06 08:11:00;;;;;;;12.10;5.25;;;-1.10;99.50;;;;;;5049139;28;20041;-68
2022/01/06 08:13:26;;;;;;;20.08;8.18;;;-0.80;99.40;;;;;;5048697;28;20092;-68
2022/01/06 08:15:53;;;;;;;17.10;5.93;;;-1.00;99.30;;;;;;5048743;28;20496;-69
2022/01/06 08:18:20;;;;;;;15.95;6.10;;;-1.10;99.30;;;;;;5048376;28;20132;-69
2022/01/06 08:20:47;;;;;;;17.58;7.00;;;-1.10;99.30;;;;;;5048973;28;20053;-69
2022/01/06 08:23:14;;;;;;;14.48;6.47;;;-1.00;99.40;;;;;;5048887;28;20095;-67
2022/01/06 08:25:41;;;;;;;16.45;5.60;;;-1.00;99.30;;;;;;5049692;28;20136;-68
2022/01/06 08:28:08;;;;;;;16.25;5.28;;;-0.90;99.20;;;;;;5047998;28;20057;-69
2022/01/06 08:30:35;;;;;;;13.23;5.70;;;-1.00;99.30;;;;;;5048352;28;20164;-68
2022/01/06 08:33:02;;;;;;;18.15;6.53;;;-0.90;99.40;;;;;;5048769;28;20067;-67
2022/01/06 08:35:29;;;;;;;12.82;6.60;;;-0.90;99.50;;;;;;5047511;28;20108;-68
2022/01/06 08:37:59;;;;;;;29.33;6.15;;;-0.80;99.60;;;;;;5049235;28;20098;-67
2022/01/06 08:40:26;;;;;;;20.25;6.47;;;-0.70;99.30;;;;;;5047539;28;20044;-65
2022/01/06 08:42:53;;;;;;;13.18;5.75;;;-0.70;99.30;;;;;;5049934;28;20554;-67
2022/01/06 08:45:20;;;;;;;19.10;6.35;;;-0.70;99.30;;;;;;5047861;28;20049;-67
2022/01/06 08:47:46;;;;;;;17.50;6.93;;;-0.70;99.20;;;;;;5047593;28;20084;-65
2022/01/06 08:50:15;;;;;;;21.80;6.07;;;-0.70;98.90;;;;;;5049032;28;20049;-67
2022/01/06 08:52:42;;;;;;;13.93;5.78;;;-0.70;99.10;;;;;;5046295;28;20045;-67
2022/01/06 08:55:09;;;;;;;13.48;6.07;;;-0.80;99.20;;;;;;5047039;28;20766;-67
2022/01/06 08:57:36;;;;;;;13.48;5.85;;;-0.80;99.10;;;;;;5047103;28;20544;-66
2022/01/06 09:00:04;;;;;;;16.58;6.20;;;-0.80;99.20;;;;;;5040204;28;20075;-67
2022/01/06 09:02:31;;;;;;;14.07;6.90;;;-0.70;99.50;;;;;;5046345;28;20147;-66
2022/01/06 09:05:00;;;;;;;25.17;8.32;;;-0.70;99.30;;;;;;5030955;28;20053;-67
2022/01/06 09:07:26;;;;;;;21.13;7.28;;;-0.60;99.30;;;;;;5048385;28;20084;-68
2022/01/06 09:09:53;;;;;;;21.55;6.90;;;-0.60;99.30;;;;;;5048302;28;20186;-66
2022/01/06 09:12:20;;;;;;;14.82;6.70;;;-0.50;99.30;;;;;;5047929;28;20037;-66
2022/01/06 09:14:47;;;;;;;16.55;5.75;;;-0.50;99.20;;;;;;5046361;28;20072;-66
2022/01/06 09:17:14;;;;;;;18.02;6.20;;;-0.50;99.30;;;;;;5046940;28;20053;-66
2022/01/06 09:19:41;;;;;;;15.13;6.43;;;-0.40;99.40;;;;;;5047719;28;20091;-67
2022/01/06 09:22:08;;;;;;;13.10;6.05;;;-0.40;99.40;;;;;;5047661;28;20087;-66
2022/01/06 09:24:34;;;;;;;20.48;6.30;;;-0.30;99.60;;;;;;5048142;28;20666;-67
2022/01/06 09:27:01;;;;;;;18.67;6.20;;;-0.20;99.60;;;;;;5047135;28;20045;-66
2022/01/06 09:29:28;;;;;;;16.67;6.80;;;-0.20;99.60;;;;;;5046354;28;20199;-67
2022/01/06 09:31:55;;;;;;;20.75;5.63;;;0.00;99.60;;;;;;5048250;28;20041;-67
2022/01/06 09:34:22;;;;;;;17.42;6.30;;;0.00;99.60;;;;;;5048106;28;20049;-66
2022/01/06 09:36:48;;;;;;;16.38;6.15;;;0.10;99.60;;;;;;5048073;28;20496;-66
2022/01/06 09:39:15;;;;;;;16.90;6.00;;;0.20;99.60;;;;;;5048534;28;20053;-66
2022/01/06 09:41:42;;;;;;;15.13;6.10;;;0.30;99.60;;;;;;5047081;28;20119;-67
2022/01/06 09:44:09;;;;;;;16.40;5.00;;;0.30;99.70;;;;;;5048321;28;20049;-66
2022/01/06 09:46:56;;;;;;;14.25;4.40;;;0.40;99.60;;;;;;5045851;28;20060;-67
2022/01/06 09:49:23;;;;;;;19.38;5.20;;;0.50;99.60;;;;;;5047032;28;20049;-66
2022/01/06 09:51:51;;;;;;;11.65;4.03;;;0.60;99.50;;;;;;5048080;28;20055;-67
2022/01/06 09:54:18;;;;;;;21.23;4.85;;;0.60;99.60;;;;;;5047832;28;20060;-66
2022/01/06 09:56:45;;;;;;;22.33;4.93;;;0.80;99.60;;;;;;5047619;28;20049;-67
2022/01/06 09:59:12;;;;;;;13.73;3.92;;;0.80;99.70;;;;;;5048185;28;20092;-65
2022/01/06 10:01:39;;;;;;;12.35;2.90;;;1.00;99.70;;;;;;5048054;28;20060;-67
2022/01/06 10:04:16;;;;;;;7.82;3.25;;;1.00;99.80;;;;;;5047970;28;20106;-67
2022/01/06 10:06:43;;;;;;;6.78;1.98;;;1.30;99.90;;;;;;5047879;28;20068;-68
2022/01/06 10:09:10;;;;;;;16.52;3.15;;;1.30;99.90;;;;;;5046966;28;20045;-67
2022/01/06 10:11:38;;;;;;;18.70;3.28;;;1.50;99.70;;;;;;5048201;28;20285;-67
2022/01/06 10:14:11;;;;;;;8.15;2.83;;;1.60;99.60;;;;;;5041948;28;20071;-68
2022/01/06 10:16:39;;;;;;;11.23;2.33;;;1.80;99.50;;;;;;5050642;28;20040;-67
2022/01/06 10:19:12;;;;;;;13.43;2.72;;;1.90;99.40;;;;;;5050585;28;20044;-68
2022/01/06 10:21:41;;;;;;;12.48;2.92;;;2.10;99.20;;;;;;5048457;28;20057;-67
2022/01/06 10:24:14;;;;;;;14.80;3.25;;;2.20;99.10;;;;;;5046953;28;20083;-67
2022/01/06 10:26:55;;;;;;;17.75;2.83;;;2.30;98.80;;;;;;5047832;28;20622;-67
2022/01/06 10:29:22;;;;;;;15.07;2.10;;;2.60;98.60;;;;;;5045908;28;20055;-66
2022/01/06 10:31:49;;;;;;;25.48;4.10;;;2.70;98.40;;;;;;5046144;28;20099;-66
2022/01/06 10:34:16;;;;;;;16.27;3.78;;;2.80;98.50;;;;;;5045291;28;20061;-66
2022/01/06 10:36:44;;;;;;;18.40;3.10;;;3.00;98.70;;;;;;5047829;28;20091;-66
2022/01/06 10:39:11;;;;;;;17.35;2.78;;;3.10;97.70;;;;;;5047243;28;20514;-67
2022/01/06 10:41:38;;;;;;;21.50;3.92;;;3.10;97.90;;;;;;5041723;28;20082;-67
2022/01/06 10:44:06;;;;;;;13.70;2.95;;;3.20;98.00;;;;;;5046283;28;20490;-69
2022/01/06 10:46:43;;;;;;;10.23;2.33;;;3.30;97.50;;;;;;5046263;28;20049;-67
2022/01/06 10:49:15;;;;;;;10.95;2.95;;;3.40;97.60;;;;;;5046291;28;20239;-67
2022/01/06 10:51:46;;;;;;;10.07;3.42;;;3.60;97.60;;;;;;5042309;28;20122;-67
2022/01/06 10:54:21;;;;;;;18.63;3.25;;;3.60;97.30;;;;;;5045980;28;20091;-66
2022/01/06 10:57:05;;;;;;;18.83;4.03;;;3.60;97.00;;;;;;5046026;28;20497;-66
2022/01/06 10:59:33;;;;;;;9.15;3.15;;;3.70;97.00;;;;;;5045956;28;20115;-67
2022/01/06 11:02:01;;;;;;;9.73;3.78;;;3.80;96.80;;;;;;5046862;28;20041;-67
2022/01/06 11:04:28;;;;;;;11.63;3.08;;;3.90;96.90;;;;;;5046621;28;20098;-68
2022/01/06 11:06:55;;;;;;;14.23;3.63;;;3.90;96.80;;;;;;5045915;28;20459;-69
2022/01/06 11:09:22;;;;;;;17.33;2.95;;;3.90;96.50;;;;;;5046629;28;20467;-68
2022/01/06 11:14:20;;;;;;;14.35;2.80;;;4.00;96.20;;;;;;5038918;28;20049;-67
2022/01/06 11:16:47;;;;;;;16.83;4.22;;;4.00;95.80;;;;;;5045817;28;20217;-67
2022/01/06 11:19:14;;;;;;;9.98;2.58;;;4.00;96.30;;;;;;5046105;28;20037;-67
2022/01/06 11:21:45;;;;;;;7.70;2.40;;;4.80;96.40;;;;;;5045744;28;20076;-67
2022/01/06 11:24:22;;;;;;;17.38;4.07;;;4.00;95.80;;;;;;5045311;28;20435;-66
2022/01/06 11:27:10;;;;;;;12.82;2.35;;;4.10;95.40;;;;;;5047035;28;20045;-69
2022/01/06 11:29:40;;;;;;;12.70;2.58;;;4.20;95.00;;;;;;5046241;28;20036;-67
2022/01/06 11:32:21;;;;;;;18.42;3.20;;;4.20;95.50;;;;;;5046816;28;20533;-66
2022/01/06 11:35:05;;;;;;;14.25;3.88;;;4.30;94.40;;;;;;5046566;28;20516;-70
2022/01/06 11:37:45;;;;;;;13.93;4.50;;;4.20;95.30;;;;;;5046719;28;20122;-68
2022/01/06 11:40:14;;;;;;;20.20;3.70;;;4.30;94.70;;;;;;5046752;28;20041;-68
2022/01/06 11:42:51;;;;;;;12.35;3.35;;;4.30;95.10;;;;;;5045522;28;20107;-67
2022/01/06 11:45:18;;;;;;;16.58;3.38;;;4.30;95.00;;;;;;5040212;28;20103;-65
2022/01/06 11:47:45;;;;;;;12.60;3.15;;;4.30;94.60;;;;;;5046984;28;20053;-66
2022/01/06 11:50:24;;;;;;;18.60;3.03;;;4.30;94.80;;;;;;5045632;28;20059;-68
2022/01/06 11:52:53;;;;;;;13.15;3.10;;;4.30;94.60;;;;;;5047717;28;20049;-66
2022/01/06 11:55:21;;;;;;;8.73;3.13;;;4.30;93.90;;;;;;5046450;28;20232;-67
2022/01/06 11:57:48;;;;;;;13.60;2.90;;;4.30;94.40;;;;;;5047126;28;20045;-67
2022/01/06 12:00:19;;;;;;;12.85;2.78;;;4.30;94.40;;;;;;5045930;28;20084;-66
2022/01/06 12:03:01;;;;;;;8.07;2.45;;;4.40;93.90;;;;;;5040484;28;20095;-66
2022/01/06 12:05:39;;;;;;;13.95;2.33;;;4.40;92.70;;;;;;5046115;28;20048;-66
2022/01/06 12:08:06;;;;;;;9.23;3.00;;;4.40;93.10;;;;;;5046041;28;20492;-66
2022/01/06 12:10:59;;;;;;;7.07;2.83;;;4.40;93.50;;;;;;5047247;28;20557;-66
2022/01/06 12:13:25;;;;;;;12.70;2.58;;;4.30;91.30;;;;;;5045466;28;20103;-66
2022/01/06 12:16:01;;;;;;;8.25;2.83;;;4.40;92.60;;;;;;5049743;28;20040;-67
2022/01/06 12:18:32;;;;;;;9.27;2.70;;;4.40;93.40;;;;;;5046895;28;20049;-67
2022/01/06 12:20:59;;;;;;;10.52;2.50;;;4.40;93.50;;;;;;5048291;28;20061;-68
2022/01/06 12:23:26;;;;;;;14.45;2.38;;;4.40;92.90;;;;;;5050016;28;20079;-66
2022/01/06 12:25:56;;;;;;;10.85;2.75;;;4.40;93.40;;;;;;5049820;28;20045;-67
2022/01/06 12:28:22;;;;;;;9.38;2.60;;;4.40;92.70;;;;;;5048000;28;20044;-67
2022/01/06 12:30:49;;;;;;;10.23;2.58;;;4.40;92.70;;;;;;5048956;28;20056;-66
2022/01/06 12:33:20;;;;;;;12.32;2.67;;;4.40;93.30;;;;;;5047581;28;20040;-66
2022/01/06 12:35:52;;;;;;;13.98;4.32;;;4.50;93.40;;;;;;5049434;28;20099;-67
2022/01/06 12:38:40;;;;;;;7.65;2.50;;;4.60;92.70;;;;;;5047018;28;20053;-66
2022/01/06 12:41:08;;;;;;;11.30;2.10;;;4.50;91.80;;;;;;5049404;28;20091;-67
2022/01/06 12:43:36;;;;;;;11.35;3.10;;;4.50;93.20;;;;;;5049423;28;20094;-66
2022/01/06 12:46:10;;;;;;;11.13;3.75;;;4.50;92.80;;;;;;5048926;28;20041;-66
2022/01/06 12:48:42;;;;;;;8.73;3.30;;;4.50;92.70;;;;;;5047879;28;20055;-66
2022/01/06 12:51:11;;;;;;;13.75;3.17;;;4.50;92.70;;;;;;5049379;28;20049;-68
2022/01/06 12:53:40;;;;;;;11.43;3.47;;;4.50;92.30;;;;;;5047831;28;20049;-67
2022/01/06 12:56:07;;;;;;;14.35;4.70;;;4.50;93.30;;;;;;5047254;28;20128;-68
2022/01/06 12:58:36;;;;;;;9.55;3.08;;;4.60;93.40;;;;;;5050215;28;20059;-67
2022/01/06 13:01:07;;;;;;;14.85;3.95;;;4.50;93.30;;;;;;5052115;28;20044;-67